sensor_id;sensor_type;location;lat;lon;timestamp;P1;durP1;ratioP1;P2;durP2;ratioP2
41514;SDS011;27247;48.020;16.720;2024-01-15T00:01:29;18.52;;;8.50;;
41514;SDS011;27247;48.020;16.720;2024-01-15T00:05:40;31.15;;;12.55;;
41514;SDS011;27247;48.020;16.720;2024-01-15T00:09:50;42.73;;;16.83;;
41514;SDS011;27247;48.020;16.720;2024-01-15T00:14:00;36.27;;;14.80;;
41514;SDS011;27247;48.020;16.720;2024-01-15T00:18:11;30.17;;;14.30;;
41514;SDS011;27247;48.020;16.720;2024-01-15T00:22:21;36.28;;;16.27;;
41514;SDS011;27247;48.020;16.720;2024-01-15T00:26:31;42.50;;;17.98;;
41514;SDS011;27247;48.020;16.720;2024-01-15T00:30:41;50.00;;;21.07;;
41514;SDS011;27247;48.020;16.720;2024-01-15T00:34:52;68.27;;;25.93;;
41514;SDS011;27247;48.020;16.720;2024-01-15T00:39:02;63.25;;;26.25;;
41514;SDS011;27247;48.020;16.720;2024-01-15T00:43:15;33.60;;;13.13;;
41514;SDS011;27247;48.020;16.720;2024-01-15T00:47:28;32.80;;;13.38;;
41514;SDS011;27247;48.020;16.720;2024-01-15T00:51:38;39.00;;;15.83;;
41514;SDS011;27247;48.020;16.720;2024-01-15T00:55:49;39.20;;;16.35;;
41514;SDS011;27247;48.020;16.720;2024-01-15T00:59:59;61.42;;;24.73;;
41514;SDS011;27247;48.020;16.720;2024-01-15T01:04:10;46.47;;;20.55;;
41514;SDS011;27247;48.020;16.720;2024-01-15T01:08:20;57.22;;;26.05;;
41514;SDS011;27247;48.020;16.720;2024-01-15T01:12:30;42.43;;;18.63;;
41514;SDS011;27247;48.020;16.720;2024-01-15T01:16:41;56.30;;;25.27;;
41514;SDS011;27247;48.020;16.720;2024-01-15T01:20:51;64.53;;;27.50;;
41514;SDS011;27247;48.020;16.720;2024-01-15T01:25:01;38.63;;;18.10;;
41514;SDS011;27247;48.020;16.720;2024-01-15T01:29:12;35.75;;;15.10;;
41514;SDS011;27247;48.020;16.720;2024-01-15T01:33:22;34.83;;;14.87;;
41514;SDS011;27247;48.020;16.720;2024-01-15T01:37:33;30.53;;;14.93;;
41514;SDS011;27247;48.020;16.720;2024-01-15T01:41:45;37.63;;;14.85;;
41514;SDS011;27247;48.020;16.720;2024-01-15T01:45:56;36.03;;;16.27;;
41514;SDS011;27247;48.020;16.720;2024-01-15T01:50:08;44.92;;;18.65;;
41514;SDS011;27247;48.020;16.720;2024-01-15T01:54:19;40.08;;;17.90;;
41514;SDS011;27247;48.020;16.720;2024-01-15T01:58:30;39.78;;;16.17;;
41514;SDS011;27247;48.020;16.720;2024-01-15T02:02:43;33.10;;;13.95;;
41514;SDS011;27247;48.020;16.720;2024-01-15T02:06:53;35.83;;;15.48;;
41514;SDS011;27247;48.020;16.720;2024-01-15T02:11:04;35.47;;;14.60;;
41514;SDS011;27247;48.020;16.720;2024-01-15T02:15:14;37.38;;;17.00;;
41514;SDS011;27247;48.020;16.720;2024-01-15T02:19:25;47.83;;;20.42;;
41514;SDS011;27247;48.020;16.720;2024-01-15T02:23:35;50.88;;;20.35;;
41514;SDS011;27247;48.020;16.720;2024-01-15T02:27:45;44.90;;;20.70;;
41514;SDS011;27247;48.020;16.720;2024-01-15T02:31:56;38.42;;;16.80;;
41514;SDS011;27247;48.020;16.720;2024-01-15T02:36:06;37.40;;;18.03;;
41514;SDS011;27247;48.020;16.720;2024-01-15T02:40:17;42.40;;;17.73;;
41514;SDS011;27247;48.020;16.720;2024-01-15T02:44:27;42.08;;;17.20;;
41514;SDS011;27247;48.020;16.720;2024-01-15T02:48:37;32.95;;;15.38;;
41514;SDS011;27247;48.020;16.720;2024-01-15T02:52:48;43.40;;;17.37;;
41514;SDS011;27247;48.020;16.720;2024-01-15T02:56:58;37.90;;;17.27;;
41514;SDS011;27247;48.020;16.720;2024-01-15T03:01:08;48.05;;;18.67;;
41514;SDS011;27247;48.020;16.720;2024-01-15T03:05:19;43.55;;;18.35;;
41514;SDS011;27247;48.020;16.720;2024-01-15T03:09:30;43.17;;;18.00;;
41514;SDS011;27247;48.020;16.720;2024-01-15T03:13:40;38.80;;;17.10;;
41514;SDS011;27247;48.020;16.720;2024-01-15T03:17:50;37.07;;;15.37;;
41514;SDS011;27247;48.020;16.720;2024-01-15T03:22:01;34.60;;;15.33;;
41514;SDS011;27247;48.020;16.720;2024-01-15T03:26:12;40.28;;;17.33;;
41514;SDS011;27247;48.020;16.720;2024-01-15T03:30:22;46.38;;;20.55;;
41514;SDS011;27247;48.020;16.720;2024-01-15T03:34:33;40.47;;;18.97;;
41514;SDS011;27247;48.020;16.720;2024-01-15T03:38:43;45.63;;;18.98;;
41514;SDS011;27247;48.020;16.720;2024-01-15T03:42:53;49.70;;;19.97;;
41514;SDS011;27247;48.020;16.720;2024-01-15T03:47:04;36.10;;;14.40;;
41514;SDS011;27247;48.020;16.720;2024-01-15T03:51:17;20.50;;;8.90;;
41514;SDS011;27247;48.020;16.720;2024-01-15T03:55:27;24.08;;;9.48;;
41514;SDS011;27247;48.020;16.720;2024-01-15T03:59:40;19.85;;;7.90;;
41514;SDS011;27247;48.020;16.720;2024-01-15T04:03:51;17.75;;;7.15;;
41514;SDS011;27247;48.020;16.720;2024-01-15T04:08:01;20.15;;;7.53;;
41514;SDS011;27247;48.020;16.720;2024-01-15T04:12:12;16.70;;;6.72;;
41514;SDS011;27247;48.020;16.720;2024-01-15T04:16:22;20.23;;;7.87;;
41514;SDS011;27247;48.020;16.720;2024-01-15T04:20:32;20.40;;;10.00;;
41514;SDS011;27247;48.020;16.720;2024-01-15T04:24:43;17.67;;;8.03;;
41514;SDS011;27247;48.020;16.720;2024-01-15T04:28:53;20.13;;;9.47;;
41514;SDS011;27247;48.020;16.720;2024-01-15T04:33:03;17.27;;;8.43;;
41514;SDS011;27247;48.020;16.720;2024-01-15T04:37:14;20.20;;;7.95;;
41514;SDS011;27247;48.020;16.720;2024-01-15T04:41:24;16.45;;;8.15;;
41514;SDS011;27247;48.020;16.720;2024-01-15T04:45:34;16.43;;;9.00;;
41514;SDS011;27247;48.020;16.720;2024-01-15T04:49:45;18.83;;;8.63;;
41514;SDS011;27247;48.020;16.720;2024-01-15T04:53:55;17.23;;;7.13;;
41514;SDS011;27247;48.020;16.720;2024-01-15T04:58:05;8.33;;;5.20;;
41514;SDS011;27247;48.020;16.720;2024-01-15T05:02:16;11.73;;;5.37;;
41514;SDS011;27247;48.020;16.720;2024-01-15T05:06:26;9.77;;;4.63;;
41514;SDS011;27247;48.020;16.720;2024-01-15T05:10:37;8.77;;;4.20;;
41514;SDS011;27247;48.020;16.720;2024-01-15T05:14:47;11.15;;;4.05;;
41514;SDS011;27247;48.020;16.720;2024-01-15T05:18:57;6.85;;;2.72;;
41514;SDS011;27247;48.020;16.720;2024-01-15T05:23:08;6.53;;;2.88;;
41514;SDS011;27247;48.020;16.720;2024-01-15T05:27:18;6.10;;;3.23;;
41514;SDS011;27247;48.020;16.720;2024-01-15T05:31:31;3.92;;;2.47;;
41514;SDS011;27247;48.020;16.720;2024-01-15T05:35:41;7.47;;;3.08;;
41514;SDS011;27247;48.020;16.720;2024-01-15T05:39:51;13.07;;;3.40;;
41514;SDS011;27247;48.020;16.720;2024-01-15T05:44:02;8.10;;;3.17;;
41514;SDS011;27247;48.020;16.720;2024-01-15T05:48:12;9.48;;;3.67;;
41514;SDS011;27247;48.020;16.720;2024-01-15T05:52:23;8.55;;;3.92;;
41514;SDS011;27247;48.020;16.720;2024-01-15T05:56:33;9.38;;;4.50;;
41514;SDS011;27247;48.020;16.720;2024-01-15T06:00:44;7.72;;;4.32;;
41514;SDS011;27247;48.020;16.720;2024-01-15T06:04:55;6.80;;;3.83;;
41514;SDS011;27247;48.020;16.720;2024-01-15T06:09:06;9.03;;;4.03;;
41514;SDS011;27247;48.020;16.720;2024-01-15T06:13:16;10.48;;;4.47;;
41514;SDS011;27247;48.020;16.720;2024-01-15T06:17:26;9.50;;;3.67;;
41514;SDS011;27247;48.020;16.720;2024-01-15T06:21:36;11.38;;;4.93;;
41514;SDS011;27247;48.020;16.720;2024-01-15T06:25:47;11.77;;;4.93;;
41514;SDS011;27247;48.020;16.720;2024-01-15T06:29:57;14.60;;;6.27;;
41514;SDS011;27247;48.020;16.720;2024-01-15T06:34:07;10.90;;;5.20;;
41514;SDS011;27247;48.020;16.720;2024-01-15T06:38:18;12.52;;;6.47;;
41514;SDS011;27247;48.020;16.720;2024-01-15T06:42:28;10.47;;;5.80;;
41514;SDS011;27247;48.020;16.720;2024-01-15T06:46:42;16.20;;;6.45;;
41514;SDS011;27247;48.020;16.720;2024-01-15T06:50:53;13.88;;;5.95;;
41514;SDS011;27247;48.020;16.720;2024-01-15T06:55:03;9.98;;;5.90;;
41514;SDS011;27247;48.020;16.720;2024-01-15T06:59:14;12.68;;;6.50;;
41514;SDS011;27247;48.020;16.720;2024-01-15T07:03:24;14.95;;;7.10;;
41514;SDS011;27247;48.020;16.720;2024-01-15T07:07:34;13.00;;;6.70;;
41514;SDS011;27247;48.020;16.720;2024-01-15T07:11:45;14.50;;;7.05;;
41514;SDS011;27247;48.020;16.720;2024-01-15T07:15:58;13.57;;;6.90;;
41514;SDS011;27247;48.020;16.720;2024-01-15T07:20:09;17.10;;;7.15;;
41514;SDS011;27247;48.020;16.720;2024-01-15T07:24:20;14.90;;;7.10;;
41514;SDS011;27247;48.020;16.720;2024-01-15T07:28:30;14.73;;;5.90;;
41514;SDS011;27247;48.020;16.720;2024-01-15T07:32:41;19.10;;;7.32;;
41514;SDS011;27247;48.020;16.720;2024-01-15T07:36:52;15.13;;;6.78;;
41514;SDS011;27247;48.020;16.720;2024-01-15T07:41:02;17.40;;;7.27;;
41514;SDS011;27247;48.020;16.720;2024-01-15T07:45:13;11.82;;;6.63;;
41514;SDS011;27247;48.020;16.720;2024-01-15T07:49:24;12.55;;;6.25;;
41514;SDS011;27247;48.020;16.720;2024-01-15T07:53:34;15.60;;;7.25;;
41514;SDS011;27247;48.020;16.720;2024-01-15T07:57:44;12.00;;;6.50;;
41514;SDS011;27247;48.020;16.720;2024-01-15T08:01:56;9.40;;;5.35;;
41514;SDS011;27247;48.020;16.720;2024-01-15T08:06:09;10.90;;;5.05;;
41514;SDS011;27247;48.020;16.720;2024-01-15T08:10:19;13.25;;;5.47;;
41514;SDS011;27247;48.020;16.720;2024-01-15T08:14:30;14.90;;;6.30;;
41514;SDS011;27247;48.020;16.720;2024-01-15T08:18:41;8.67;;;4.70;;
41514;SDS011;27247;48.020;16.720;2024-01-15T08:22:52;10.80;;;4.50;;
41514;SDS011;27247;48.020;16.720;2024-01-15T08:27:03;6.82;;;4.32;;
41514;SDS011;27247;48.020;16.720;2024-01-15T08:31:14;11.13;;;4.07;;
41514;SDS011;27247;48.020;16.720;2024-01-15T08:35:25;8.38;;;4.18;;
41514;SDS011;27247;48.020;16.720;2024-01-15T08:39:35;7.82;;;4.30;;
41514;SDS011;27247;48.020;16.720;2024-01-15T08:43:48;6.78;;;3.90;;
41514;SDS011;27247;48.020;16.720;2024-01-15T08:47:58;7.80;;;3.80;;
41514;SDS011;27247;48.020;16.720;2024-01-15T08:52:09;7.57;;;3.55;;
41514;SDS011;27247;48.020;16.720;2024-01-15T08:56:20;7.72;;;3.05;;
41514;SDS011;27247;48.020;16.720;2024-01-15T09:00:30;6.70;;;3.23;;
41514;SDS011;27247;48.020;16.720;2024-01-15T09:04:40;4.97;;;3.03;;
41514;SDS011;27247;48.020;16.720;2024-01-15T09:08:51;7.63;;;2.70;;
41514;SDS011;27247;48.020;16.720;2024-01-15T09:13:01;4.57;;;2.40;;
41514;SDS011;27247;48.020;16.720;2024-01-15T09:17:13;5.70;;;2.42;;
41514;SDS011;27247;48.020;16.720;2024-01-15T09:21:24;5.53;;;3.10;;
41514;SDS011;27247;48.020;16.720;2024-01-15T09:25:34;3.70;;;2.35;;
41514;SDS011;27247;48.020;16.720;2024-01-15T09:29:44;5.57;;;3.13;;
41514;SDS011;27247;48.020;16.720;2024-01-15T09:33:56;4.53;;;2.40;;
41514;SDS011;27247;48.020;16.720;2024-01-15T09:38:07;6.63;;;2.63;;
41514;SDS011;27247;48.020;16.720;2024-01-15T09:42:18;3.50;;;2.40;;
41514;SDS011;27247;48.020;16.720;2024-01-15T09:46:29;4.60;;;2.58;;
41514;SDS011;27247;48.020;16.720;2024-01-15T09:50:43;5.15;;;2.80;;
41514;SDS011;27247;48.020;16.720;2024-01-15T09:54:54;6.93;;;2.72;;
41514;SDS011;27247;48.020;16.720;2024-01-15T09:59:04;6.30;;;3.13;;
41514;SDS011;27247;48.020;16.720;2024-01-15T10:03:15;6.15;;;3.28;;
41514;SDS011;27247;48.020;16.720;2024-01-15T10:07:26;4.87;;;2.80;;
41514;SDS011;27247;48.020;16.720;2024-01-15T10:11:39;6.95;;;3.05;;
41514;SDS011;27247;48.020;16.720;2024-01-15T10:15:49;5.80;;;3.10;;
41514;SDS011;27247;48.020;16.720;2024-01-15T10:20:00;5.32;;;2.67;;
41514;SDS011;27247;48.020;16.720;2024-01-15T10:24:11;6.00;;;2.83;;
41514;SDS011;27247;48.020;16.720;2024-01-15T10:28:22;5.97;;;2.50;;
41514;SDS011;27247;48.020;16.720;2024-01-15T10:32:32;4.57;;;2.93;;
41514;SDS011;27247;48.020;16.720;2024-01-15T10:36:45;4.25;;;2.60;;
41514;SDS011;27247;48.020;16.720;2024-01-15T10:40:57;5.72;;;2.70;;
41514;SDS011;27247;48.020;16.720;2024-01-15T10:45:08;8.38;;;2.80;;
41514;SDS011;27247;48.020;16.720;2024-01-15T10:49:19;5.95;;;2.95;;
41514;SDS011;27247;48.020;16.720;2024-01-15T10:53:30;6.80;;;2.70;;
41514;SDS011;27247;48.020;16.720;2024-01-15T10:57:43;5.38;;;2.83;;
41514;SDS011;27247;48.020;16.720;2024-01-15T11:01:55;4.18;;;2.92;;
41514;SDS011;27247;48.020;16.720;2024-01-15T11:06:15;4.70;;;2.63;;
41514;SDS011;27247;48.020;16.720;2024-01-15T11:14:51;4.78;;;2.72;;
41514;SDS011;27247;48.020;16.720;2024-01-15T11:19:02;4.78;;;2.78;;
41514;SDS011;27247;48.020;16.720;2024-01-15T11:23:41;3.65;;;2.40;;
41514;SDS011;27247;48.020;16.720;2024-01-15T11:27:54;4.13;;;2.28;;
41514;SDS011;27247;48.020;16.720;2024-01-15T11:32:05;3.80;;;2.08;;
41514;SDS011;27247;48.020;16.720;2024-01-15T11:36:17;3.47;;;2.10;;
41514;SDS011;27247;48.020;16.720;2024-01-15T11:44:44;5.43;;;2.55;;
41514;SDS011;27247;48.020;16.720;2024-01-15T11:48:55;4.28;;;2.35;;
41514;SDS011;27247;48.020;16.720;2024-01-15T11:57:37;4.50;;;2.75;;
41514;SDS011;27247;48.020;16.720;2024-01-15T12:01:53;3.83;;;2.42;;
41514;SDS011;27247;48.020;16.720;2024-01-15T12:06:06;4.28;;;2.60;;
41514;SDS011;27247;48.020;16.720;2024-01-15T12:10:18;4.97;;;2.47;;
41514;SDS011;27247;48.020;16.720;2024-01-15T12:14:30;4.70;;;2.55;;
41514;SDS011;27247;48.020;16.720;2024-01-15T12:18:40;3.43;;;2.20;;
41514;SDS011;27247;48.020;16.720;2024-01-15T12:22:51;5.97;;;2.42;;
41514;SDS011;27247;48.020;16.720;2024-01-15T12:27:01;7.93;;;2.92;;
41514;SDS011;27247;48.020;16.720;2024-01-15T12:31:12;5.40;;;2.50;;
41514;SDS011;27247;48.020;16.720;2024-01-15T12:35:23;4.35;;;2.10;;
41514;SDS011;27247;48.020;16.720;2024-01-15T12:39:36;5.82;;;2.22;;
41514;SDS011;27247;48.020;16.720;2024-01-15T12:43:46;4.45;;;2.05;;
41514;SDS011;27247;48.020;16.720;2024-01-15T12:47:57;4.15;;;2.15;;
41514;SDS011;27247;48.020;16.720;2024-01-15T12:52:08;6.25;;;2.60;;
41514;SDS011;27247;48.020;16.720;2024-01-15T12:56:19;4.72;;;2.22;;
41514;SDS011;27247;48.020;16.720;2024-01-15T13:00:30;4.80;;;2.10;;
41514;SDS011;27247;48.020;16.720;2024-01-15T13:04:40;2.45;;;1.95;;
41514;SDS011;27247;48.020;16.720;2024-01-15T13:08:50;3.55;;;2.10;;
41514;SDS011;27247;48.020;16.720;2024-01-15T13:13:01;3.97;;;2.40;;
41514;SDS011;27247;48.020;16.720;2024-01-15T13:17:11;4.25;;;2.38;;
41514;SDS011;27247;48.020;16.720;2024-01-15T13:21:22;4.60;;;2.53;;
41514;SDS011;27247;48.020;16.720;2024-01-15T13:25:32;6.13;;;2.30;;
41514;SDS011;27247;48.020;16.720;2024-01-15T13:29:45;8.43;;;2.60;;
41514;SDS011;27247;48.020;16.720;2024-01-15T13:33:56;4.57;;;2.40;;
41514;SDS011;27247;48.020;16.720;2024-01-15T13:38:06;2.90;;;1.90;;
41514;SDS011;27247;48.020;16.720;2024-01-15T13:42:17;3.55;;;1.90;;
41514;SDS011;27247;48.020;16.720;2024-01-15T13:46:28;4.13;;;1.77;;
41514;SDS011;27247;48.020;16.720;2024-01-15T13:50:39;3.72;;;1.95;;
41514;SDS011;27247;48.020;16.720;2024-01-15T13:54:49;2.53;;;1.70;;
41514;SDS011;27247;48.020;16.720;2024-01-15T13:59:00;3.40;;;1.73;;
41514;SDS011;27247;48.020;16.720;2024-01-15T14:03:10;2.23;;;1.43;;
41514;SDS011;27247;48.020;16.720;2024-01-15T14:07:20;2.55;;;1.38;;
41514;SDS011;27247;48.020;16.720;2024-01-15T14:11:31;3.22;;;1.63;;
41514;SDS011;27247;48.020;16.720;2024-01-15T14:15:41;3.95;;;1.63;;
41514;SDS011;27247;48.020;16.720;2024-01-15T14:19:51;1.90;;;1.20;;
41514;SDS011;27247;48.020;16.720;2024-01-15T14:24:02;3.93;;;2.27;;
41514;SDS011;27247;48.020;16.720;2024-01-15T14:28:13;3.78;;;1.63;;
41514;SDS011;27247;48.020;16.720;2024-01-15T14:32:24;2.72;;;1.52;;
41514;SDS011;27247;48.020;16.720;2024-01-15T14:36:34;3.10;;;1.67;;
41514;SDS011;27247;48.020;16.720;2024-01-15T14:40:44;3.50;;;1.50;;
41514;SDS011;27247;48.020;16.720;2024-01-15T14:44:55;7.93;;;2.20;;
41514;SDS011;27247;48.020;16.720;2024-01-15T14:49:06;3.53;;;1.80;;
41514;SDS011;27247;48.020;16.720;2024-01-15T14:53:16;4.03;;;2.00;;
41514;SDS011;27247;48.020;16.720;2024-01-15T14:57:27;3.00;;;1.65;;
41514;SDS011;27247;48.020;16.720;2024-01-15T15:01:37;4.27;;;2.00;;
41514;SDS011;27247;48.020;16.720;2024-01-15T15:05:47;2.88;;;1.85;;
41514;SDS011;27247;48.020;16.720;2024-01-15T15:09:58;3.90;;;1.80;;
41514;SDS011;27247;48.020;16.720;2024-01-15T15:14:09;5.32;;;2.22;;
41514;SDS011;27247;48.020;16.720;2024-01-15T15:18:20;4.70;;;2.28;;
41514;SDS011;27247;48.020;16.720;2024-01-15T15:22:34;8.60;;;3.78;;
41514;SDS011;27247;48.020;16.720;2024-01-15T15:26:44;6.40;;;2.72;;
41514;SDS011;27247;48.020;16.720;2024-01-15T15:30:54;7.03;;;3.13;;
41514;SDS011;27247;48.020;16.720;2024-01-15T15:35:07;3.95;;;1.70;;
41514;SDS011;27247;48.020;16.720;2024-01-15T15:39:17;4.03;;;1.92;;
41514;SDS011;27247;48.020;16.720;2024-01-15T15:43:28;3.77;;;1.90;;
41514;SDS011;27247;48.020;16.720;2024-01-15T15:47:39;2.53;;;1.52;;
41514;SDS011;27247;48.020;16.720;2024-01-15T15:51:49;4.37;;;1.97;;
41514;SDS011;27247;48.020;16.720;2024-01-15T15:56:00;3.10;;;1.88;;
41514;SDS011;27247;48.020;16.720;2024-01-15T16:00:11;3.53;;;1.92;;
41514;SDS011;27247;48.020;16.720;2024-01-15T16:04:21;4.53;;;2.55;;
41514;SDS011;27247;48.020;16.720;2024-01-15T16:08:32;3.13;;;1.57;;
41514;SDS011;27247;48.020;16.720;2024-01-15T16:12:42;5.73;;;3.20;;
41514;SDS011;27247;48.020;16.720;2024-01-15T16:16:52;5.23;;;3.17;;
41514;SDS011;27247;48.020;16.720;2024-01-15T16:21:07;5.38;;;2.42;;
41514;SDS011;27247;48.020;16.720;2024-01-15T16:25:17;5.82;;;2.70;;
41514;SDS011;27247;48.020;16.720;2024-01-15T16:29:27;3.07;;;2.00;;
41514;SDS011;27247;48.020;16.720;2024-01-15T16:33:38;4.63;;;2.67;;
41514;SDS011;27247;48.020;16.720;2024-01-15T16:37:48;6.30;;;2.88;;
41514;SDS011;27247;48.020;16.720;2024-01-15T16:41:59;4.20;;;1.75;;
41514;SDS011;27247;48.020;16.720;2024-01-15T16:46:09;5.20;;;2.50;;
41514;SDS011;27247;48.020;16.720;2024-01-15T16:50:20;6.43;;;2.80;;
41514;SDS011;27247;48.020;16.720;2024-01-15T16:54:33;5.43;;;2.87;;
41514;SDS011;27247;48.020;16.720;2024-01-15T16:58:45;6.47;;;3.08;;
41514;SDS011;27247;48.020;16.720;2024-01-15T17:02:55;6.93;;;3.42;;
41514;SDS011;27247;48.020;16.720;2024-01-15T17:07:06;10.80;;;4.27;;
41514;SDS011;27247;48.020;16.720;2024-01-15T17:11:16;5.63;;;2.20;;
41514;SDS011;27247;48.020;16.720;2024-01-15T17:15:26;10.90;;;4.50;;
41514;SDS011;27247;48.020;16.720;2024-01-15T17:19:37;16.00;;;6.90;;
41514;SDS011;27247;48.020;16.720;2024-01-15T17:23:47;13.17;;;5.87;;
41514;SDS011;27247;48.020;16.720;2024-01-15T17:27:57;12.27;;;4.93;;
41514;SDS011;27247;48.020;16.720;2024-01-15T17:32:07;18.10;;;6.33;;
41514;SDS011;27247;48.020;16.720;2024-01-15T17:36:18;15.38;;;5.68;;
41514;SDS011;27247;48.020;16.720;2024-01-15T17:40:28;5.27;;;3.00;;
41514;SDS011;27247;48.020;16.720;2024-01-15T17:44:39;6.85;;;2.88;;
41514;SDS011;27247;48.020;16.720;2024-01-15T17:48:49;3.13;;;1.63;;
41514;SDS011;27247;48.020;16.720;2024-01-15T17:53:00;3.42;;;1.60;;
41514;SDS011;27247;48.020;16.720;2024-01-15T17:57:10;2.42;;;1.13;;
41514;SDS011;27247;48.020;16.720;2024-01-15T18:01:20;2.40;;;1.00;;
41514;SDS011;27247;48.020;16.720;2024-01-15T18:05:31;4.05;;;1.80;;
41514;SDS011;27247;48.020;16.720;2024-01-15T18:09:41;3.70;;;2.10;;
41514;SDS011;27247;48.020;16.720;2024-01-15T18:13:52;6.32;;;2.22;;
41514;SDS011;27247;48.020;16.720;2024-01-15T18:18:02;3.55;;;1.70;;
41514;SDS011;27247;48.020;16.720;2024-01-15T18:22:12;3.45;;;1.70;;
41514;SDS011;27247;48.020;16.720;2024-01-15T18:26:24;3.58;;;1.98;;
41514;SDS011;27247;48.020;16.720;2024-01-15T18:30:35;2.97;;;1.40;;
41514;SDS011;27247;48.020;16.720;2024-01-15T18:34:46;1.75;;;1.05;;
41514;SDS011;27247;48.020;16.720;2024-01-15T18:38:56;1.90;;;1.10;;
41514;SDS011;27247;48.020;16.720;2024-01-15T18:43:08;2.30;;;1.23;;
41514;SDS011;27247;48.020;16.720;2024-01-15T18:47:19;1.17;;;1.02;;
41514;SDS011;27247;48.020;16.720;2024-01-15T18:51:29;3.17;;;1.10;;
41514;SDS011;27247;48.020;16.720;2024-01-15T18:55:39;2.10;;;1.10;;
41514;SDS011;27247;48.020;16.720;2024-01-15T18:59:50;1.73;;;1.50;;
41514;SDS011;27247;48.020;16.720;2024-01-15T19:04:00;3.67;;;1.30;;
41514;SDS011;27247;48.020;16.720;2024-01-15T19:08:11;1.85;;;1.10;;
41514;SDS011;27247;48.020;16.720;2024-01-15T19:12:21;4.05;;;1.40;;
41514;SDS011;27247;48.020;16.720;2024-01-15T19:16:32;5.47;;;1.63;;
41514;SDS011;27247;48.020;16.720;2024-01-15T19:20:42;1.98;;;1.33;;
41514;SDS011;27247;48.020;16.720;2024-01-15T19:24:52;4.88;;;1.73;;
41514;SDS011;27247;48.020;16.720;2024-01-15T19:29:03;4.15;;;1.88;;
41514;SDS011;27247;48.020;16.720;2024-01-15T19:33:13;2.37;;;1.63;;
41514;SDS011;27247;48.020;16.720;2024-01-15T19:42:30;1.48;;;0.98;;
41514;SDS011;27247;48.020;16.720;2024-01-15T19:46:41;2.57;;;1.10;;
41514;SDS011;27247;48.020;16.720;2024-01-15T19:50:51;1.10;;;0.90;;
41514;SDS011;27247;48.020;16.720;2024-01-15T19:55:03;2.53;;;1.40;;
41514;SDS011;27247;48.020;16.720;2024-01-15T19:59:14;3.60;;;1.50;;
41514;SDS011;27247;48.020;16.720;2024-01-15T20:03:24;3.78;;;1.20;;
41514;SDS011;27247;48.020;16.720;2024-01-15T20:07:35;2.63;;;1.33;;
41514;SDS011;27247;48.020;16.720;2024-01-15T20:11:46;1.83;;;1.17;;
41514;SDS011;27247;48.020;16.720;2024-01-15T20:15:57;2.45;;;1.27;;
41514;SDS011;27247;48.020;16.720;2024-01-15T20:20:07;3.30;;;1.60;;
41514;SDS011;27247;48.020;16.720;2024-01-15T20:24:20;2.42;;;1.25;;
41514;SDS011;27247;48.020;16.720;2024-01-15T20:28:33;1.65;;;1.15;;
41514;SDS011;27247;48.020;16.720;2024-01-15T20:32:43;3.72;;;1.20;;
41514;SDS011;27247;48.020;16.720;2024-01-15T20:36:54;3.30;;;1.92;;
41514;SDS011;27247;48.020;16.720;2024-01-15T20:41:04;2.65;;;1.85;;
41514;SDS011;27247;48.020;16.720;2024-01-15T20:45:15;2.95;;;1.90;;
41514;SDS011;27247;48.020;16.720;2024-01-15T20:49:26;2.60;;;1.83;;
41514;SDS011;27247;48.020;16.720;2024-01-15T20:53:38;3.83;;;1.90;;
41514;SDS011;27247;48.020;16.720;2024-01-15T20:57:50;2.38;;;1.70;;
41514;SDS011;27247;48.020;16.720;2024-01-15T21:02:00;3.42;;;1.85;;
41514;SDS011;27247;48.020;16.720;2024-01-15T21:06:11;4.78;;;2.10;;
41514;SDS011;27247;48.020;16.720;2024-01-15T21:10:21;2.50;;;1.85;;
41514;SDS011;27247;48.020;16.720;2024-01-15T21:14:31;3.30;;;2.30;;
41514;SDS011;27247;48.020;16.720;2024-01-15T21:18:42;3.15;;;2.03;;
41514;SDS011;27247;48.020;16.720;2024-01-15T21:22:53;5.82;;;2.90;;
41514;SDS011;27247;48.020;16.720;2024-01-15T21:27:03;4.93;;;2.40;;
41514;SDS011;27247;48.020;16.720;2024-01-15T21:31:14;4.07;;;2.47;;
41514;SDS011;27247;48.020;16.720;2024-01-15T21:35:24;5.60;;;2.77;;
41514;SDS011;27247;48.020;16.720;2024-01-15T21:39:34;6.20;;;2.17;;
41514;SDS011;27247;48.020;16.720;2024-01-15T21:43:45;4.22;;;2.42;;
41514;SDS011;27247;48.020;16.720;2024-01-15T21:47:55;4.63;;;2.17;;
41514;SDS011;27247;48.020;16.720;2024-01-15T21:52:06;5.82;;;2.42;;
41514;SDS011;27247;48.020;16.720;2024-01-15T21:56:16;3.90;;;2.42;;
41514;SDS011;27247;48.020;16.720;2024-01-15T22:00:26;5.23;;;2.57;;
41514;SDS011;27247;48.020;16.720;2024-01-15T22:04:37;5.07;;;2.65;;
41514;SDS011;27247;48.020;16.720;2024-01-15T22:08:47;5.28;;;2.83;;
41514;SDS011;27247;48.020;16.720;2024-01-15T22:12:58;4.45;;;2.67;;
41514;SDS011;27247;48.020;16.720;2024-01-15T22:17:08;6.57;;;2.77;;
41514;SDS011;27247;48.020;16.720;2024-01-15T22:21:19;5.00;;;2.70;;
41514;SDS011;27247;48.020;16.720;2024-01-15T22:25:29;5.07;;;2.65;;
41514;SDS011;27247;48.020;16.720;2024-01-15T22:29:41;4.93;;;2.85;;
41514;SDS011;27247;48.020;16.720;2024-01-15T22:33:52;5.10;;;3.13;;
41514;SDS011;27247;48.020;16.720;2024-01-15T22:38:02;4.32;;;2.95;;
41514;SDS011;27247;48.020;16.720;2024-01-15T22:42:13;5.05;;;3.05;;
41514;SDS011;27247;48.020;16.720;2024-01-15T22:46:23;5.35;;;3.45;;
41514;SDS011;27247;48.020;16.720;2024-01-15T22:50:33;5.90;;;3.28;;
41514;SDS011;27247;48.020;16.720;2024-01-15T22:54:44;5.07;;;2.87;;
41514;SDS011;27247;48.020;16.720;2024-01-15T22:58:54;5.57;;;2.85;;
41514;SDS011;27247;48.020;16.720;2024-01-15T23:03:04;3.50;;;2.27;;
41514;SDS011;27247;48.020;16.720;2024-01-15T23:07:15;4.97;;;3.27;;
41514;SDS011;27247;48.020;16.720;2024-01-15T23:11:25;4.77;;;2.47;;
41514;SDS011;27247;48.020;16.720;2024-01-15T23:15:36;4.13;;;2.88;;
41514;SDS011;27247;48.020;16.720;2024-01-15T23:19:46;2.90;;;2.30;;
41514;SDS011;27247;48.020;16.720;2024-01-15T23:23:56;5.23;;;3.63;;
41514;SDS011;27247;48.020;16.720;2024-01-15T23:28:07;5.53;;;2.80;;
41514;SDS011;27247;48.020;16.720;2024-01-15T23:32:17;6.33;;;3.43;;
41514;SDS011;27247;48.020;16.720;2024-01-15T23:36:27;5.00;;;2.90;;
41514;SDS011;27247;48.020;16.720;2024-01-15T23:40:37;4.83;;;3.00;;
41514;SDS011;27247;48.020;16.720;2024-01-15T23:44:48;4.33;;;3.03;;
41514;SDS011;27247;48.020;16.720;2024-01-15T23:48:59;4.60;;;2.97;;
41514;SDS011;27247;48.020;16.720;2024-01-15T23:53:10;5.57;;;3.42;;
41514;SDS011;27247;48.020;16.720;2024-01-15T23:57:20;4.33;;;2.87;;
